Floweree, MT (59440)

08:28 MDT le 30 juin 2015 (GMT -0600)
Countryside Village | | Change Station
CLOSE
Current Station
Stations météorologiques personnelles
Location: Great Falls, MT
Altitude: 3514 ft
Stations météo à proximité

Alt. 3514 ft 47.54 °N, 111.29 °W | Updated 0 second ago

Ciel dégagé
Ciel dégagé
77.9 ° F
Paraît 80 ° F
N
4.7
Vent Variable Vent de SSO
Gusts 9.2 mph

Aujourd'hui
Haut(e) -- | Bas -- ° F
--% Risque de précip.
Hier
Haut(e) -- | Bas -- ° F
Precip. -- pouce
5:30 AM 9:26 PM
Lune gibbeuse croissante, 97% visible
Pression 29.86 pouce
Visibilité 10.0 Miles terrestres
Nuages Ciel dégagé
indice de chaleur 80 ° F
Point de rosée 66 ° F
Humidité 67%
Précipitations pouce
Profondeur de la couche neigeuse Non disponible.
UV 2 sur 12
Pollen 6.80 sur 12
Qualité de l'air Non disponible.
Flu Activity Sporadic
METAR KCTB 301356Z AUTO 24012KT 10SM CLR 22/10 A2999 RMK AO2 SLP112 T02220100

More Conditions Fewer Conditions

Pression 29.86 pouce
Visibilité 10.0 Miles terrestres
Nuages Ciel dégagé
indice de chaleur 80 ° F
Point de rosée 66 ° F
Humidité 67%
Précipitations pouce
Profondeur de la couche neigeuse Non disponible.
UV 2 sur 12
Pollen 6.80 sur 12
Qualité de l'air Non disponible.
Flu Activity Sporadic
METAR KCTB 301356Z AUTO 24012KT 10SM CLR 22/10 A2999 RMK AO2 SLP112 T02220100

More Conditions Fewer Conditions

10-Day Weather Forecast

×

Almanac

Astronomie

Jun. 30, 2015 Lever Coucher
Temps réel
Crépuscule civil
Crépuscule nautique
Crépuscule astronomique
Lune
Durée de lumière visible
Longueur du jour
Tomorrow will be .
, % of the Moon is Illuminated

Extrêmes aujourd'hui

State Highs State Lows

Community

WunderPhotos

Upload Photos

1,834,008 Photos téléchargées !

WunderBlogs® & News

Nearby

Qualité de l'air

  Qualité de l'air Indice de la qualité de l'air Polluant
Not available.

Épaisseur de neige

Station Depth Altitude

Activité sismique

Ville Distance Mag. Time & Date
Minimum magnitude displayed is 2.5.

Températures des eaux côtières

Lieu Température

Stations

Stations météo à proximité

Emplacement de la station Température Refroidissement éolien Point de rosée Humidité Vent Precip. Alt. Mise à jour Type